Estación de Lontue

Ultimos registro cada 15 minutos 70
Estación Fecha / Hora Temperatura Humedad Lluvia Velocidad Dirección Radiación Presion
70 Lontue 03-05-2026 17:15 17,2 64,8 0 0 157 36,9 992,4
69 Lontue 03-05-2026 17:00 17,8 59,8 0 0 156 66,9 992,3
68 Lontue 03-05-2026 16:45 19,3 54,3 0 0 156 145,6 991,9
67 Lontue 03-05-2026 16:30 18,7 55,8 0 0 156 183,1 992,1
66 Lontue 03-05-2026 16:15 19,4 60,7 0 0,4 157 204,4 992
65 Lontue 03-05-2026 16:00 19,7 54,2 0 0 156 349,4 992,3
64 Lontue 03-05-2026 15:45 18 60,6 0 0 156 244,4 992,1
63 Lontue 03-05-2026 15:30 17,3 66,4 0 0 156 316,9 992,1
62 Lontue 03-05-2026 15:15 16,5 67 0 0 156 173,1 992,1
61 Lontue 03-05-2026 15:00 16,3 68,5 0 0 156 139,4 992,1
60 Lontue 03-05-2026 14:45 16,1 69,5 0 0 157 151,9 992,3
59 Lontue 03-05-2026 14:30 15,8 68,7 0 0,4 133 146,9 992,3
58 Lontue 03-05-2026 14:15 15,5 68,8 0 0,4 77 115,6 992,3
57 Lontue 03-05-2026 14:00 15,3 67,8 0 0,8 90 104,4 992,3
56 Lontue 03-05-2026 13:45 15,3 68,1 0 0,8 143 111,9 992,4
55 Lontue 03-05-2026 13:30 15,3 67 0 0 199 118,1 992,6
54 Lontue 03-05-2026 13:15 15,4 65,4 0 0 236 140,6 992,8
53 Lontue 03-05-2026 13:00 15,2 64,9 0 0 319 163,1 992,7
52 Lontue 03-05-2026 12:45 15,2 66,1 0 0 333 161,9 992,7
51 Lontue 03-05-2026 12:30 15,4 64,1 0 0 309 168,1 992,6
50 Lontue 03-05-2026 12:15 15,6 65,3 0 0 260 219,4 992,8
49 Lontue 03-05-2026 12:00 15 66,7 0 0 257 206,9 993,1
48 Lontue 03-05-2026 11:45 14,5 67,1 0 0 257 215,6 993,3
47 Lontue 03-05-2026 11:30 14,3 69 0 0 267 228,1 993,5
46 Lontue 03-05-2026 11:15 14 69,5 0 0 289 224,4 993,5
45 Lontue 03-05-2026 11:00 13,6 71,6 0 0,4 268 205,6 993,6
44 Lontue 03-05-2026 10:45 13,7 69,9 0 0,4 293 341,9 993,6
43 Lontue 03-05-2026 10:30 12,6 75,8 0 0,4 330 193,1 993,5
42 Lontue 03-05-2026 10:15 12,5 77,6 0 0,4 288 271,9 993,4
41 Lontue 03-05-2026 10:00 11,5 79,8 0 0 247 308,1 993,7
40 Lontue 03-05-2026 09:45 10,7 84 0 0 247 141,9 993,9
39 Lontue 03-05-2026 09:30 9,7 91,3 0 0,4 246 444,4 993,7
38 Lontue 03-05-2026 09:15 9 93,2 0 0 167 330,6 993,6
37 Lontue 03-05-2026 09:00 8,2 93,4 0 0 139 243,1 993,4
36 Lontue 03-05-2026 08:45 7,6 94 0 0 117 193,1 993,2
35 Lontue 03-05-2026 08:30 6,8 94,6 0 0 117 183,1 993,1
34 Lontue 03-05-2026 08:15 5,2 94,8 0 0 126 140,6 992,9
33 Lontue 03-05-2026 08:00 3,9 94,8 0 0 129 64,4 992,9
32 Lontue 03-05-2026 07:45 2,5 94,8 0 0 142 44,4 992,6
31 Lontue 03-05-2026 07:30 2,2 94,8 0 0 131 4,4 992,5
30 Lontue 03-05-2026 07:15 2,2 94,7 0 0 117 0,6 991,9
29 Lontue 03-05-2026 07:00 1,9 94,6 0 0 117 0,6 991,6
28 Lontue 03-05-2026 06:45 2,4 94,7 0 0 117 0,6 991,9
27 Lontue 03-05-2026 06:30 1,9 94,6 0 0,4 117 0,6 991,8
26 Lontue 03-05-2026 06:15 1,2 94,3 0 0 117 0,6 991,9
25 Lontue 03-05-2026 06:00 1,6 94,2 0 0 117 0,6 991,9
24 Lontue 03-05-2026 05:45 3,5 94,6 0 0 117 0,6 991,8
23 Lontue 03-05-2026 05:30 2 94,4 0 0 117 0,6 991,8
22 Lontue 03-05-2026 05:15 1,6 94,2 0 0 117 0,6 992,1
21 Lontue 03-05-2026 05:00 2,3 94,3 0 0 117 0,6 992,1
20 Lontue 03-05-2026 04:45 2,2 94 0 0 117 0,6 992,3
19 Lontue 03-05-2026 04:30 3,1 94,1 0 0 117 0,6 992,6
18 Lontue 03-05-2026 04:15 3,4 94,1 0 0 140 0,6 992,5
17 Lontue 03-05-2026 04:00 2,7 93,9 0 0 150 0,6 992,6
16 Lontue 03-05-2026 03:45 3,4 94 0 0 95 0,6 992,5
15 Lontue 03-05-2026 03:30 3,8 94 0 0,4 105 0,6 992,4
14 Lontue 03-05-2026 03:15 3,2 93,8 0 0 119 0,6 992,6
13 Lontue 03-05-2026 03:00 3,3 93,5 0 0 119 0,6 992,7
12 Lontue 03-05-2026 02:45 4 93,6 0 0 118 0,6 992,6
11 Lontue 03-05-2026 02:30 4,4 93,7 0 0 118 0,6 992,5
10 Lontue 03-05-2026 02:15 4,7 93,7 0 0 152 0,6 992,5
9 Lontue 03-05-2026 02:00 4,7 93,8 0 0 166 0,6 992,9
8 Lontue 03-05-2026 01:45 4,2 93,6 0 0,4 138 0,6 992,8
7 Lontue 03-05-2026 01:30 4 93,3 0 0,4 108 0,6 992,3
6 Lontue 03-05-2026 01:15 3,9 93,2 0 0 108 0,6 992,4
5 Lontue 03-05-2026 01:00 4,5 93,2 0 0 108 0,6 992,2
4 Lontue 03-05-2026 00:45 4,6 93,1 0 0 108 0,6 992,3
3 Lontue 03-05-2026 00:30 5 93,1 0 0,4 108 0,6 992,5
2 Lontue 03-05-2026 00:15 4,6 92,8 0 0,8 124 0,6 992,5
1 Lontue 03-05-2026 00:00 4,1 92,1 0 0 136 0,6 992,7